Time;durP1;ratioP1;P1;durP2;ratioP2;P2;SDS_P1;SDS_P2;PMS_P1;PMS_P2;Temp;Humidity;BMP_temperature;BMP_pressure;BME280_temperature;BME280_humidity;BME280_pressure;Samples;Min_cycle;Max_cycle;Signal;HPM_P1;HPM_P2
2022/08/24 00:01:54;;;;;;;;;;;;;;;;;;6243863;23;19908;-65
2022/08/24 00:04:19;;;;;;;;;;;;;;;;;;6243503;23;19916;-65
2022/08/24 00:06:45;;;;;;;;;;;;;;;;;;6243839;23;20014;-65
2022/08/24 00:09:11;;;;;;;;;;;;;;;;;;6243795;23;19907;-67
2022/08/24 00:11:36;;;;;;;;;;;;;;;;;;6241933;23;19908;-66
2022/08/24 00:14:03;;;;;;;;;;;;;;;;;;6243808;23;19907;-66
2022/08/24 00:16:28;;;;;;;;;;;;;;;;;;6243701;23;19907;-66
2022/08/24 00:18:54;;;;;;;;;;;;;;;;;;6243777;23;19942;-65
2022/08/24 00:21:20;;;;;;;;;;;;;;;;;;6243393;23;20344;-66
2022/08/24 00:23:48;;;;;;;;;;;;;;;;;;6216518;23;19908;-65
2022/08/24 00:26:14;;;;;;;;;;;;;;;;;;6243527;23;19912;-64
2022/08/24 00:28:39;;;;;;;;;;;;;;;;;;6243665;23;20307;-65
2022/08/24 00:31:05;;;;;;;;;;;;;;;;;;6243223;22;20237;-66
2022/08/24 00:33:31;;;;;;;;;;;;;;;;;;6243193;23;19994;-66
2022/08/24 00:35:57;;;;;;;;;;;;;;;;;;6243226;23;19927;-65
2022/08/24 00:38:22;;;;;;;;;;;;;;;;;;6216420;23;19915;-65
2022/08/24 00:40:48;;;;;;;;;;;;;;;;;;6216385;23;20490;-65
2022/08/24 00:43:14;;;;;;;;;;;;;;;;;;6245105;23;19990;-66
2022/08/24 00:45:39;;;;;;;;;;;;;;;;;;6243092;23;20084;-65
2022/08/24 00:48:05;;;;;;;;;;;;;;;;;;6191740;23;19942;-66
2022/08/24 00:50:31;;;;;;;;;;;;;;;;;;6243367;23;19907;-65
2022/08/24 00:52:56;;;;;;;;;;;;;;;;;;6243354;23;19939;-66
2022/08/24 00:55:22;;;;;;;;;;;;;;;;;;6242932;23;20498;-65
2022/08/24 00:57:48;;;;;;;;;;;;;;;;;;6243295;23;19943;-66
2022/08/24 01:00:14;;;;;;;;;;;;;;;;;;6216436;23;20242;-65
2022/08/24 01:02:40;;;;;;;;;;;;;;;;;;6191512;23;19908;-66
2022/08/24 01:05:06;;;;;;;;;;;;;;;;;;6242909;23;19922;-67
2022/08/24 01:07:32;;;;;;;;;;;;;;;;;;6243085;23;19934;-66
2022/08/24 01:09:57;;;;;;;;;;;;;;;;;;6242920;23;19907;-66
2022/08/24 01:12:24;;;;;;;;;;;;;;;;;;6243037;23;19953;-66
2022/08/24 01:14:49;;;;;;;;;;;;;;;;;;6243303;23;20232;-66
2022/08/24 01:20:00;;;;;;;;;;;;;;;;;;6216174;23;19914;-64
2022/08/24 01:22:26;;;;;;;;;;;;;;;;;;6216181;23;20389;-67
2022/08/24 01:24:52;;;;;;;;;;;;;;;;;;6242858;23;19997;-66
2022/08/24 01:27:17;;;;;;;;;;;;;;;;;;6166941;23;19907;-65
2022/08/24 01:29:43;;;;;;;;;;;;;;;;;;6216285;23;19911;-66
2022/08/24 01:32:09;;;;;;;;;;;;;;;;;;6242992;22;19907;-65
2022/08/24 01:34:34;;;;;;;;;;;;;;;;;;6242090;23;19953;-67
2022/08/24 01:37:00;;;;;;;;;;;;;;;;;;6241336;23;19919;-65
2022/08/24 01:39:26;;;;;;;;;;;;;;;;;;6215850;23;19907;-65
2022/08/24 01:41:52;;;;;;;;;;;;;;;;;;6216129;23;19907;-65
2022/08/24 01:44:17;;;;;;;;;;;;;;;;;;6216090;23;20001;-65
2022/08/24 01:46:43;;;;;;;;;;;;;;;;;;6215699;23;19911;-66
2022/08/24 01:49:09;;;;;;;;;;;;;;;;;;6216064;23;19942;-65
2022/08/24 01:51:35;;;;;;;;;;;;;;;;;;6242562;23;19907;-66
2022/08/24 01:54:01;;;;;;;;;;;;;;;;;;6216241;23;19908;-66
2022/08/24 01:56:27;;;;;;;;;;;;;;;;;;6215844;23;20260;-66
2022/08/24 01:58:54;;;;;;;;;;;;;;;;;;6215831;23;19924;-65
2022/08/24 02:01:19;;;;;;;;;;;;;;;;;;6215925;23;19912;-65
2022/08/24 02:03:46;;;;;;;;;;;;;;;;;;6215633;23;19933;-64
2022/08/24 02:06:11;;;;;;;;;;;;;;;;;;6215946;23;20399;-66
2022/08/24 02:08:37;;;;;;;;;;;;;;;;;;6215712;23;20333;-66
2022/08/24 02:11:03;;;;;;;;;;;;;;;;;;6215722;23;19918;-65
2022/08/24 02:13:28;;;;;;;;;;;;;;;;;;6242475;23;19996;-66
2022/08/24 02:15:54;;;;;;;;;;;;;;;;;;6215656;23;19907;-65
2022/08/24 02:18:20;;;;;;;;;;;;;;;;;;6190913;23;20221;-65
2022/08/24 02:20:45;;;;;;;;;;;;;;;;;;6190363;23;19908;-65
2022/08/24 02:23:11;;;;;;;;;;;;;;;;;;6242513;23;20342;-65
2022/08/24 02:25:37;;;;;;;;;;;;;;;;;;6242123;23;20002;-65
2022/08/24 02:28:02;;;;;;;;;;;;;;;;;;6242471;23;19908;-64
2022/08/24 02:30:28;;;;;;;;;;;;;;;;;;6242023;23;19911;-64
2022/08/24 02:32:54;;;;;;;;;;;;;;;;;;6215655;23;20303;-65
2022/08/24 02:35:19;;;;;;;;;;;;;;;;;;6216184;23;19907;-64
2022/08/24 02:37:46;;;;;;;;;;;;;;;;;;6215848;23;20941;-66
2022/08/24 02:40:13;;;;;;;;;;;;;;;;;;6215544;23;19970;-66
2022/08/24 02:42:39;;;;;;;;;;;;;;;;;;6215498;23;19946;-65
2022/08/24 02:45:04;;;;;;;;;;;;;;;;;;6242168;23;19916;-65
2022/08/24 02:47:30;;;;;;;;;;;;;;;;;;6215658;23;20327;-63
2022/08/24 02:49:56;;;;;;;;;;;;;;;;;;6215591;23;20041;-64
2022/08/24 02:52:22;;;;;;;;;;;;;;;;;;6215783;23;20520;-66
2022/08/24 02:54:48;;;;;;;;;;;;;;;;;;6215247;23;19907;-65
2022/08/24 02:57:13;;;;;;;;;;;;;;;;;;6242516;23;19911;-68
2022/08/24 02:59:39;;;;;;;;;;;;;;;;;;6215066;23;19962;-68
2022/08/24 03:02:05;;;;;;;;;;;;;;;;;;6242363;23;20391;-68
2022/08/24 03:04:31;;;;;;;;;;;;;;;;;;6240439;23;20245;-68
2022/08/24 03:06:58;;;;;;;;;;;;;;;;;;6215426;23;19946;-68
2022/08/24 03:09:23;;;;;;;;;;;;;;;;;;6215594;23;20283;-69
2022/08/24 03:11:49;;;;;;;;;;;;;;;;;;6214990;23;19914;-68
2022/08/24 03:14:17;;;;;;;;;;;;;;;;;;6216044;23;19903;-69
2022/08/24 03:16:42;;;;;;;;;;;;;;;;;;6240273;23;19941;-68
2022/08/24 03:19:08;;;;;;;;;;;;;;;;;;6215553;23;19908;-69
2022/08/24 03:21:35;;;;;;;;;;;;;;;;;;6215031;23;19914;-68
2022/08/24 03:24:01;;;;;;;;;;;;;;;;;;6215503;23;19915;-69
2022/08/24 03:26:27;;;;;;;;;;;;;;;;;;6215288;23;19914;-71
2022/08/24 03:28:52;;;;;;;;;;;;;;;;;;6215054;23;19907;-68
2022/08/24 03:31:18;;;;;;;;;;;;;;;;;;6215224;22;19915;-68
2022/08/24 03:33:45;;;;;;;;;;;;;;;;;;6215707;23;19973;-68
2022/08/24 03:36:11;;;;;;;;;;;;;;;;;;6215223;23;19908;-69
2022/08/24 03:38:37;;;;;;;;;;;;;;;;;;6241838;23;19961;-68
2022/08/24 03:41:02;;;;;;;;;;;;;;;;;;6215059;23;19915;-69
2022/08/24 03:46:15;;;;;;;;;;;;;;;;;;6215233;23;19915;-68
2022/08/24 03:48:41;;;;;;;;;;;;;;;;;;6215074;23;20306;-68
2022/08/24 03:51:07;;;;;;;;;;;;;;;;;;6215147;23;20336;-69
2022/08/24 03:53:33;;;;;;;;;;;;;;;;;;6215117;23;19956;-69
2022/08/24 03:55:59;;;;;;;;;;;;;;;;;;6215471;23;19907;-68
2022/08/24 03:58:26;;;;;;;;;;;;;;;;;;6242833;23;20041;-68
2022/08/24 04:00:52;;;;;;;;;;;;;;;;;;6243478;23;19907;-68
2022/08/24 04:03:18;;;;;;;;;;;;;;;;;;6243758;23;19907;-69
2022/08/24 04:05:43;;;;;;;;;;;;;;;;;;6216469;23;19919;-68
2022/08/24 04:08:09;;;;;;;;;;;;;;;;;;6243711;23;19915;-69
2022/08/24 04:10:35;;;;;;;;;;;;;;;;;;6216509;23;19907;-68
2022/08/24 04:13:01;;;;;;;;;;;;;;;;;;6217022;23;19907;-68
2022/08/24 04:15:26;;;;;;;;;;;;;;;;;;6216951;23;19945;-68
2022/08/24 04:17:53;;;;;;;;;;;;;;;;;;6192089;23;19935;-68
2022/08/24 04:20:19;;;;;;;;;;;;;;;;;;6216673;23;20341;-68
2022/08/24 04:22:45;;;;;;;;;;;;;;;;;;6216602;23;19908;-68
2022/08/24 04:25:11;;;;;;;;;;;;;;;;;;6216564;23;19916;-68
2022/08/24 04:27:37;;;;;;;;;;;;;;;;;;6216769;23;20351;-70
2022/08/24 04:30:03;;;;;;;;;;;;;;;;;;6216935;23;19912;-68
2022/08/24 04:32:35;;;;;;;;;;;;;;;;;;6216541;23;19918;-69
2022/08/24 04:35:02;;;;;;;;;;;;;;;;;;6191432;23;19907;-68
2022/08/24 04:37:28;;;;;;;;;;;;;;;;;;6217209;23;19915;-69
2022/08/24 04:39:54;;;;;;;;;;;;;;;;;;6216394;23;19907;-68
2022/08/24 04:42:23;;;;;;;;;;;;;;;;;;6191366;23;20295;-68
2022/08/24 04:44:49;;;;;;;;;;;;;;;;;;6216191;23;19915;-69
2022/08/24 04:47:17;;;;;;;;;;;;;;;;;;6216528;23;19914;-68
2022/08/24 04:49:43;;;;;;;;;;;;;;;;;;6216303;23;19907;-68
2022/08/24 04:52:09;;;;;;;;;;;;;;;;;;6243023;23;19907;-69
2022/08/24 04:54:35;;;;;;;;;;;;;;;;;;6216137;23;19908;-70
2022/08/24 04:57:08;;;;;;;;;;;;;;;;;;6191316;23;19907;-69
2022/08/24 04:59:35;;;;;;;;;;;;;;;;;;6216460;23;20372;-69
2022/08/24 05:02:00;;;;;;;;;;;;;;;;;;6216484;23;19939;-68
2022/08/24 05:04:26;;;;;;;;;;;;;;;;;;6243172;23;19916;-69
2022/08/24 05:06:51;;;;;;;;;;;;;;;;;;6216021;23;19907;-69
2022/08/24 05:09:18;;;;;;;;;;;;;;;;;;6216275;23;19930;-68
2022/08/24 05:11:44;;;;;;;;;;;;;;;;;;6190703;23;20331;-68
2022/08/24 05:14:09;;;;;;;;;;;;;;;;;;6190990;23;19908;-68
2022/08/24 05:16:36;;;;;;;;;;;;;;;;;;6191383;23;19908;-69
2022/08/24 05:19:02;;;;;;;;;;;;;;;;;;6216332;23;19907;-68
2022/08/24 05:21:29;;;;;;;;;;;;;;;;;;6216154;23;19986;-69
2022/08/24 05:23:56;;;;;;;;;;;;;;;;;;6215828;23;19954;-68
2022/08/24 05:26:24;;;;;;;;;;;;;;;;;;6216163;23;20144;-68
2022/08/24 05:28:51;;;;;;;;;;;;;;;;;;6242491;23;19907;-68
2022/08/24 05:31:16;;;;;;;;;;;;;;;;;;6215884;22;20267;-68
2022/08/24 05:33:42;;;;;;;;;;;;;;;;;;6216284;23;19914;-69
2022/08/24 05:36:08;;;;;;;;;;;;;;;;;;6242540;23;19914;-69
2022/08/24 05:38:33;;;;;;;;;;;;;;;;;;6216037;23;19912;-69
2022/08/24 05:40:59;;;;;;;;;;;;;;;;;;6215716;23;20012;-69
2022/08/24 05:43:28;;;;;;;;;;;;;;;;;;6216232;23;20312;-69
2022/08/24 05:45:54;;;;;;;;;;;;;;;;;;6215521;23;19966;-69
2022/08/24 05:48:19;;;;;;;;;;;;;;;;;;6215976;23;19911;-69
2022/08/24 05:51:03;;;;;;;;;;;;;;;;;;6242750;23;19993;-69
2022/08/24 05:53:33;;;;;;;;;;;;;;;;;;6216058;23;19946;-68
2022/08/24 05:55:59;;;;;;;;;;;;;;;;;;6215401;23;19907;-69
2022/08/24 05:58:24;;;;;;;;;;;;;;;;;;6242606;23;19907;-69
2022/08/24 06:00:50;;;;;;;;;;;;;;;;;;6215511;23;19934;-69
2022/08/24 06:03:16;;;;;;;;;;;;;;;;;;6216077;23;19907;-69
2022/08/24 06:05:47;;;;;;;;;;;;;;;;;;6215708;23;20253;-70
2022/08/24 06:08:14;;;;;;;;;;;;;;;;;;6216288;23;19966;-69
2022/08/24 06:10:39;;;;;;;;;;;;;;;;;;6215772;23;19911;-69
2022/08/24 06:13:05;;;;;;;;;;;;;;;;;;6216012;23;19907;-69
2022/08/24 06:15:32;;;;;;;;;;;;;;;;;;6215823;23;19914;-69
2022/08/24 06:17:57;;;;;;;;;;;;;;;;;;6215662;23;20256;-69
2022/08/24 06:20:23;;;;;;;;;;;;;;;;;;6242732;23;19966;-69
2022/08/24 06:22:49;;;;;;;;;;;;;;;;;;6242335;23;19922;-69
2022/08/24 06:27:59;;;;;;;;;;;;;;;;;;6215535;23;19930;-69
2022/08/24 06:30:24;;;;;;;;;;;;;;;;;;6215743;23;20345;-69
2022/08/24 06:33:09;;;;;;;;;;;;;;;;;;6242425;22;19907;-69
2022/08/24 06:35:41;;;;;;;;;;;;;;;;;;6215391;23;19907;-70
2022/08/24 06:38:06;;;;;;;;;;;;;;;;;;6215648;23;19960;-68
2022/08/24 06:40:32;;;;;;;;;;;;;;;;;;6215517;23;20344;-69
2022/08/24 06:42:58;;;;;;;;;;;;;;;;;;6215336;23;19908;-69
2022/08/24 06:45:35;;;;;;;;;;;;;;;;;;6190463;23;19955;-69
2022/08/24 06:48:01;;;;;;;;;;;;;;;;;;6215590;23;19911;-69
2022/08/24 06:50:27;;;;;;;;;;;;;;;;;;6215638;23;20332;-69
2022/08/24 06:52:54;;;;;;;;;;;;;;;;;;6215238;23;19912;-69
2022/08/24 06:55:20;;;;;;;;;;;;;;;;;;6215783;23;19907;-69
2022/08/24 06:57:46;;;;;;;;;;;;;;;;;;6215455;23;20225;-69
2022/08/24 07:00:12;;;;;;;;;;;;;;;;;;6215317;23;20410;-69
2022/08/24 07:02:40;;;;;;;;;;;;;;;;;;6215523;23;19914;-69
2022/08/24 07:05:05;;;;;;;;;;;;;;;;;;6215180;23;19916;-68
2022/08/24 07:07:54;;;;;;;;;;;;;;;;;;6225686;23;19957;-68
2022/08/24 07:10:19;;;;;;;;;;;;;;;;;;6215724;23;19907;-69
2022/08/24 07:12:45;;;;;;;;;;;;;;;;;;6215378;23;20251;-68
2022/08/24 07:15:12;;;;;;;;;;;;;;;;;;6215465;23;20348;-69
2022/08/24 07:17:38;;;;;;;;;;;;;;;;;;6215417;23;19953;-69
2022/08/24 07:20:04;;;;;;;;;;;;;;;;;;6189964;23;20382;-69
2022/08/24 07:22:56;;;;;;;;;;;;;;;;;;6206094;23;20359;-69
2022/08/24 07:25:22;;;;;;;;;;;;;;;;;;6242282;23;19915;-69
2022/08/24 07:27:48;;;;;;;;;;;;;;;;;;6215284;23;20376;-69
2022/08/24 07:30:14;;;;;;;;;;;;;;;;;;6215644;23;19912;-69
2022/08/24 07:32:39;;;;;;;;;;;;;;;;;;6243310;22;19961;-69
2022/08/24 07:35:05;;;;;;;;;;;;;;;;;;6241672;23;20363;-69
2022/08/24 07:37:31;;;;;;;;;;;;;;;;;;6216143;23;20323;-69
2022/08/24 07:39:57;;;;;;;;;;;;;;;;;;6191931;23;19915;-69
2022/08/24 07:42:23;;;;;;;;;;;;;;;;;;6217182;23;19974;-69
2022/08/24 07:44:49;;;;;;;;;;;;;;;;;;6217009;23;19982;-69
2022/08/24 07:47:14;;;;;;;;;;;;;;;;;;6217241;23;19939;-69
2022/08/24 07:49:40;;;;;;;;;;;;;;;;;;6217334;23;20060;-69
2022/08/24 07:52:06;;;;;;;;;;;;;;;;;;6216947;23;19907;-69
2022/08/24 07:54:32;;;;;;;;;;;;;;;;;;6192056;23;19938;-69
2022/08/24 07:56:58;;;;;;;;;;;;;;;;;;6216826;23;20356;-69
2022/08/24 07:59:24;;;;;;;;;;;;;;;;;;6217079;23;20005;-69
2022/08/24 08:01:51;;;;;;;;;;;;;;;;;;6216484;23;19908;-69
2022/08/24 08:04:20;;;;;;;;;;;;;;;;;;6217196;23;19911;-69
2022/08/24 08:06:46;;;;;;;;;;;;;;;;;;6216603;23;19953;-70
2022/08/24 08:09:12;;;;;;;;;;;;;;;;;;6217044;23;19941;-69
2022/08/24 08:11:38;;;;;;;;;;;;;;;;;;6216753;23;19907;-69
2022/08/24 08:14:04;;;;;;;;;;;;;;;;;;6191856;23;19914;-69
2022/08/24 08:16:30;;;;;;;;;;;;;;;;;;6191799;23;19936;-70
2022/08/24 08:18:56;;;;;;;;;;;;;;;;;;6216610;23;19947;-69
2022/08/24 08:24:17;;;;;;;;;;;;;;;;;;6216467;23;19907;-69
2022/08/24 08:26:49;;;;;;;;;;;;;;;;;;6216528;23;19908;-70
2022/08/24 08:29:23;;;;;;;;;;;;;;;;;;6192138;23;20252;-69
2022/08/24 08:31:50;;;;;;;;;;;;;;;;;;6216334;23;20283;-70
2022/08/24 08:34:16;;;;;;;;;;;;;;;;;;6216692;23;19915;-69
2022/08/24 08:36:42;;;;;;;;;;;;;;;;;;6243464;23;19962;-69
2022/08/24 08:39:08;;;;;;;;;;;;;;;;;;6216426;23;19908;-70
2022/08/24 08:41:34;;;;;;;;;;;;;;;;;;6216671;23;20329;-69
2022/08/24 08:44:10;;;;;;;;;;;;;;;;;;6216355;23;19908;-69
2022/08/24 08:46:35;;;;;;;;;;;;;;;;;;6216558;23;19990;-69
2022/08/24 08:49:23;;;;;;;;;;;;;;;;;;6243615;23;19953;-69
2022/08/24 08:51:49;;;;;;;;;;;;;;;;;;6243052;23;19990;-69
2022/08/24 08:54:14;;;;;;;;;;;;;;;;;;6243216;23;20307;-69
2022/08/24 08:56:40;;;;;;;;;;;;;;;;;;6216556;23;19908;-69
2022/08/24 08:59:06;;;;;;;;;;;;;;;;;;6216010;23;20264;-69
2022/08/24 09:01:42;;;;;;;;;;;;;;;;;;6216832;23;19908;-69
2022/08/24 09:04:12;;;;;;;;;;;;;;;;;;6216151;23;20303;-69
2022/08/24 09:06:48;;;;;;;;;;;;;;;;;;6216522;23;19907;-70
2022/08/24 09:09:15;;;;;;;;;;;;;;;;;;6216674;23;19934;-69
2022/08/24 09:11:41;;;;;;;;;;;;;;;;;;6216537;23;20336;-69
2022/08/24 09:14:07;;;;;;;;;;;;;;;;;;6216291;23;20247;-69
2022/08/24 09:16:38;;;;;;;;;;;;;;;;;;6216563;23;19907;-69
2022/08/24 09:19:04;;;;;;;;;;;;;;;;;;6216245;23;20140;-69
2022/08/24 09:21:31;;;;;;;;;;;;;;;;;;6215987;23;20259;-69
2022/08/24 09:23:59;;;;;;;;;;;;;;;;;;6216090;23;19979;-69
2022/08/24 09:26:25;;;;;;;;;;;;;;;;;;6216598;23;19990;-69
2022/08/24 09:28:51;;;;;;;;;;;;;;;;;;6216077;23;19915;-69
2022/08/24 09:31:17;;;;;;;;;;;;;;;;;;6242665;22;19907;-68
2022/08/24 09:33:42;;;;;;;;;;;;;;;;;;6242976;23;19907;-68
2022/08/24 09:36:08;;;;;;;;;;;;;;;;;;6242534;23;20010;-68
2022/08/24 09:38:34;;;;;;;;;;;;;;;;;;6242959;23;19919;-68
2022/08/24 09:40:59;;;;;;;;;;;;;;;;;;6242368;23;19907;-69
2022/08/24 09:43:25;;;;;;;;;;;;;;;;;;6243072;23;19907;-68
2022/08/24 09:45:51;;;;;;;;;;;;;;;;;;6216027;23;19907;-68
2022/08/24 09:48:16;;;;;;;;;;;;;;;;;;6242414;23;20340;-69
2022/08/24 09:50:42;;;;;;;;;;;;;;;;;;6242688;23;19940;-69
2022/08/24 09:53:08;;;;;;;;;;;;;;;;;;6240722;23;20241;-68
2022/08/24 09:55:33;;;;;;;;;;;;;;;;;;6242369;23;19919;-68
2022/08/24 09:57:59;;;;;;;;;;;;;;;;;;6242404;23;19911;-68
2022/08/24 10:00:25;;;;;;;;;;;;;;;;;;6215970;23;19919;-68
2022/08/24 10:02:51;;;;;;;;;;;;;;;;;;6242691;23;19907;-68
2022/08/24 10:05:16;;;;;;;;;;;;;;;;;;6242708;23;19908;-69
2022/08/24 10:07:42;;;;;;;;;;;;;;;;;;6242543;23;19914;-68
2022/08/24 10:10:08;;;;;;;;;;;;;;;;;;6240374;23;20046;-68
2022/08/24 10:12:34;;;;;;;;;;;;;;;;;;6242232;23;19938;-68
2022/08/24 10:14:59;;;;;;;;;;;;;;;;;;6242036;23;19916;-68
2022/08/24 10:17:25;;;;;;;;;;;;;;;;;;6242540;23;19927;-68
2022/08/24 10:19:50;;;;;;;;;;;;;;;;;;6190823;23;19946;-68
2022/08/24 10:22:16;;;;;;;;;;;;;;;;;;6242107;23;19908;-68
2022/08/24 10:24:42;;;;;;;;;;;;;;;;;;6242601;23;19907;-69
2022/08/24 10:27:08;;;;;;;;;;;;;;;;;;6241973;23;19947;-69
2022/08/24 10:29:33;;;;;;;;;;;;;;;;;;6242462;23;20356;-69
2022/08/24 10:31:59;;;;;;;;;;;;;;;;;;6241762;22;19908;-71
2022/08/24 10:34:25;;;;;;;;;;;;;;;;;;6242324;23;19915;-68
2022/08/24 10:36:50;;;;;;;;;;;;;;;;;;6242187;23;19907;-69
2022/08/24 10:42:00;;;;;;;;;;;;;;;;;;6241852;23;20395;-69
2022/08/24 10:44:27;;;;;;;;;;;;;;;;;;6242268;23;19946;-69
2022/08/24 10:46:52;;;;;;;;;;;;;;;;;;6241935;23;19911;-68
2022/08/24 10:49:18;;;;;;;;;;;;;;;;;;6241850;23;20363;-69
2022/08/24 10:51:43;;;;;;;;;;;;;;;;;;6242336;23;19938;-69
2022/08/24 10:54:09;;;;;;;;;;;;;;;;;;6242254;23;19947;-70
2022/08/24 10:56:35;;;;;;;;;;;;;;;;;;6242097;23;20233;-68
2022/08/24 10:59:00;;;;;;;;;;;;;;;;;;6241834;23;19922;-69
2022/08/24 11:01:26;;;;;;;;;;;;;;;;;;6242058;23;19943;-69
2022/08/24 11:03:52;;;;;;;;;;;;;;;;;;6242199;23;19912;-69
2022/08/24 11:06:18;;;;;;;;;;;;;;;;;;6241728;23;19907;-69
2022/08/24 11:08:44;;;;;;;;;;;;;;;;;;6244501;23;19917;-69
2022/08/24 11:11:10;;;;;;;;;;;;;;;;;;6243696;23;19908;-69
2022/08/24 11:13:36;;;;;;;;;;;;;;;;;;6217303;23;19907;-69
2022/08/24 11:16:02;;;;;;;;;;;;;;;;;;6243809;23;19916;-69
2022/08/24 11:18:27;;;;;;;;;;;;;;;;;;6244273;23;19961;-69
2022/08/24 11:20:53;;;;;;;;;;;;;;;;;;6242743;23;19908;-69
2022/08/24 11:23:19;;;;;;;;;;;;;;;;;;6243852;23;19950;-69
2022/08/24 11:25:45;;;;;;;;;;;;;;;;;;6244174;23;19908;-69
2022/08/24 11:28:11;;;;;;;;;;;;;;;;;;6243655;23;19914;-69
2022/08/24 11:30:37;;;;;;;;;;;;;;;;;;6244207;23;19907;-69
2022/08/24 11:33:03;;;;;;;;;;;;;;;;;;6243383;22;20367;-69
2022/08/24 11:35:29;;;;;;;;;;;;;;;;;;6244011;23;19922;-69
2022/08/24 11:37:54;;;;;;;;;;;;;;;;;;6243809;23;19907;-69
2022/08/24 11:40:20;;;;;;;;;;;;;;;;;;6243632;23;19914;-69
2022/08/24 11:42:46;;;;;;;;;;;;;;;;;;6243809;23;19939;-69
2022/08/24 11:45:11;;;;;;;;;;;;;;;;;;6243560;23;19914;-69
2022/08/24 11:47:38;;;;;;;;;;;;;;;;;;6243721;23;20217;-69
2022/08/24 11:50:03;;;;;;;;;;;;;;;;;;6243620;23;19907;-69
2022/08/24 11:52:29;;;;;;;;;;;;;;;;;;6243723;23;19908;-69
2022/08/24 11:54:55;;;;;;;;;;;;;;;;;;6243942;23;20252;-69
2022/08/24 11:57:20;;;;;;;;;;;;;;;;;;6217088;23;19915;-69
2022/08/24 11:59:47;;;;;;;;;;;;;;;;;;6243689;23;19916;-69
2022/08/24 12:02:13;;;;;;;;;;;;;;;;;;6216636;23;20402;-69
2022/08/24 12:04:38;;;;;;;;;;;;;;;;;;6243819;23;20329;-69
2022/08/24 12:07:04;;;;;;;;;;;;;;;;;;6216578;23;19919;-69
2022/08/24 12:09:30;;;;;;;;;;;;;;;;;;6243877;23;20261;-69
2022/08/24 12:11:56;;;;;;;;;;;;;;;;;;6216809;23;19934;-69
2022/08/24 12:14:21;;;;;;;;;;;;;;;;;;6243351;23;19919;-69
2022/08/24 12:16:47;;;;;;;;;;;;;;;;;;6243458;23;19907;-69
2022/08/24 12:19:13;;;;;;;;;;;;;;;;;;6215890;23;19914;-69
2022/08/24 12:21:39;;;;;;;;;;;;;;;;;;6243267;23;20362;-69
2022/08/24 12:24:04;;;;;;;;;;;;;;;;;;6243085;23;19918;-69
2022/08/24 12:26:30;;;;;;;;;;;;;;;;;;6243463;23;19930;-70
2022/08/24 12:28:56;;;;;;;;;;;;;;;;;;6243568;23;19911;-68
2022/08/24 12:31:22;;;;;;;;;;;;;;;;;;6243332;22;19961;-67
2022/08/24 12:33:47;;;;;;;;;;;;;;;;;;6243483;23;19907;-66
2022/08/24 12:36:13;;;;;;;;;;;;;;;;;;6243063;23;19947;-68
2022/08/24 12:38:39;;;;;;;;;;;;;;;;;;6243535;23;19907;-66
2022/08/24 12:41:05;;;;;;;;;;;;;;;;;;6216434;23;19914;-67
2022/08/24 12:43:30;;;;;;;;;;;;;;;;;;6243316;23;20232;-69
2022/08/24 12:45:58;;;;;;;;;;;;;;;;;;6243324;23;19907;-66
2022/08/24 12:48:24;;;;;;;;;;;;;;;;;;6242752;23;19957;-66
2022/08/24 12:50:49;;;;;;;;;;;;;;;;;;6243341;23;19908;-68
2022/08/24 12:53:15;;;;;;;;;;;;;;;;;;6242713;23;19914;-67
2022/08/24 12:55:41;;;;;;;;;;;;;;;;;;6216096;23;19915;-66
2022/08/24 12:58:06;;;;;;;;;;;;;;;;;;6240742;23;19908;-67
2022/08/24 13:00:32;;;;;;;;;;;;;;;;;;6243334;23;19943;-67
2022/08/24 13:02:58;;;;;;;;;;;;;;;;;;6243065;23;19907;-67
2022/08/24 13:05:23;;;;;;;;;;;;;;;;;;6216042;23;19911;-67
2022/08/24 13:07:49;;;;;;;;;;;;;;;;;;6243372;23;20225;-67
2022/08/24 13:10:15;;;;;;;;;;;;;;;;;;6242746;23;19907;-67
2022/08/24 13:12:40;;;;;;;;;;;;;;;;;;6216281;23;20264;-68
2022/08/24 13:15:06;;;;;;;;;;;;;;;;;;6242751;23;19916;-67
2022/08/24 13:17:32;;;;;;;;;;;;;;;;;;6242837;23;19978;-66
2022/08/24 13:19:57;;;;;;;;;;;;;;;;;;6243039;23;20336;-66
2022/08/24 13:22:23;;;;;;;;;;;;;;;;;;6242526;23;19914;-67
2022/08/24 13:24:49;;;;;;;;;;;;;;;;;;6242930;23;19907;-67
2022/08/24 13:27:14;;;;;;;;;;;;;;;;;;6242473;23;19915;-67
2022/08/24 13:29:40;;;;;;;;;;;;;;;;;;6242846;23;19990;-66
2022/08/24 13:32:06;;;;;;;;;;;;;;;;;;6242239;22;19915;-66
2022/08/24 13:34:31;;;;;;;;;;;;;;;;;;6243164;23;20328;-68
2022/08/24 13:36:57;;;;;;;;;;;;;;;;;;6216029;23;20340;-66
2022/08/24 13:39:22;;;;;;;;;;;;;;;;;;6242522;23;19915;-68
2022/08/24 13:41:48;;;;;;;;;;;;;;;;;;6216151;23;19908;-67
2022/08/24 13:44:14;;;;;;;;;;;;;;;;;;6215525;23;19990;-66
2022/08/24 13:46:40;;;;;;;;;;;;;;;;;;6242786;23;19990;-67
2022/08/24 13:49:05;;;;;;;;;;;;;;;;;;6242204;23;19907;-69
2022/08/24 13:51:31;;;;;;;;;;;;;;;;;;6242983;23;19907;-67
2022/08/24 13:53:57;;;;;;;;;;;;;;;;;;6242658;23;19914;-65
2022/08/24 13:56:22;;;;;;;;;;;;;;;;;;6242474;23;19915;-67
2022/08/24 13:58:48;;;;;;;;;;;;;;;;;;6215574;23;19915;-68
2022/08/24 14:01:14;;;;;;;;;;;;;;;;;;6242070;23;19911;-67
2022/08/24 14:03:40;;;;;;;;;;;;;;;;;;6242660;23;19929;-67
2022/08/24 14:06:05;;;;;;;;;;;;;;;;;;6242589;23;19994;-67
2022/08/24 14:08:32;;;;;;;;;;;;;;;;;;6242541;23;19930;-67
2022/08/24 14:10:58;;;;;;;;;;;;;;;;;;6242331;23;19914;-67
2022/08/24 14:13:23;;;;;;;;;;;;;;;;;;6242179;23;19911;-66
2022/08/24 14:17:50;;;;;;;;;;;;;;;;;;6215605;23;19916;-66
2022/08/24 14:18:35;;;;;;;;;;;;;;;;;;6242493;23;19911;-67
2022/08/24 14:21:00;;;;;;;;;;;;;;;;;;6242374;23;20152;-66
2022/08/24 14:23:26;;;;;;;;;;;;;;;;;;6241938;23;19907;-68
2022/08/24 14:25:51;;;;;;;;;;;;;;;;;;6215719;23;19982;-67
2022/08/24 14:28:17;;;;;;;;;;;;;;;;;;6242089;23;19990;-67
2022/08/24 14:30:43;;;;;;;;;;;;;;;;;;6242206;23;19962;-68
2022/08/24 14:33:08;;;;;;;;;;;;;;;;;;6241361;22;19907;-66
2022/08/24 14:35:35;;;;;;;;;;;;;;;;;;6241899;23;19919;-68
2022/08/24 14:38:00;;;;;;;;;;;;;;;;;;6242010;23;19963;-68
2022/08/24 14:40:26;;;;;;;;;;;;;;;;;;6241728;23;19970;-65
2022/08/24 14:42:51;;;;;;;;;;;;;;;;;;6214994;23;19911;-68
2022/08/24 14:45:17;;;;;;;;;;;;;;;;;;6240043;23;19997;-68
2022/08/24 14:47:43;;;;;;;;;;;;;;;;;;6241973;23;19907;-67
2022/08/24 14:50:09;;;;;;;;;;;;;;;;;;6241880;23;19903;-65
2022/08/24 14:52:34;;;;;;;;;;;;;;;;;;6241991;23;20372;-67
2022/08/24 14:55:00;;;;;;;;;;;;;;;;;;6241833;23;19915;-67
2022/08/24 14:57:25;;;;;;;;;;;;;;;;;;6241289;23;19939;-66
2022/08/24 14:59:52;;;;;;;;;;;;;;;;;;6214821;23;19990;-66
2022/08/24 15:02:18;;;;;;;;;;;;;;;;;;6241066;23;20250;-66
2022/08/24 15:04:43;;;;;;;;;;;;;;;;;;6241889;23;19912;-66
2022/08/24 15:07:09;;;;;;;;;;;;;;;;;;6241592;23;20038;-67
2022/08/24 15:09:36;;;;;;;;;;;;;;;;;;6241971;23;19907;-68
2022/08/24 15:12:02;;;;;;;;;;;;;;;;;;6241643;23;19907;-68
2022/08/24 15:14:27;;;;;;;;;;;;;;;;;;6241252;23;19916;-67
2022/08/24 15:16:53;;;;;;;;;;;;;;;;;;6241364;23;19986;-68
2022/08/24 15:19:19;;;;;;;;;;;;;;;;;;6241156;23;19934;-65
2022/08/24 15:21:44;;;;;;;;;;;;;;;;;;6241789;23;19907;-68
2022/08/24 15:24:12;;;;;;;;;;;;;;;;;;6214675;23;19994;-67
2022/08/24 15:26:38;;;;;;;;;;;;;;;;;;6242017;23;19991;-67
2022/08/24 15:29:03;;;;;;;;;;;;;;;;;;6241568;23;19934;-67
2022/08/24 15:31:29;;;;;;;;;;;;;;;;;;6214414;23;19914;-66
2022/08/24 15:33:55;;;;;;;;;;;;;;;;;;6241807;23;19994;-68
2022/08/24 15:36:21;;;;;;;;;;;;;;;;;;6241384;23;20295;-66
2022/08/24 15:38:46;;;;;;;;;;;;;;;;;;6240464;23;20329;-66
2022/08/24 15:41:12;;;;;;;;;;;;;;;;;;6239747;23;19967;-67
2022/08/24 15:43:37;;;;;;;;;;;;;;;;;;6241715;23;19961;-67
2022/08/24 15:46:03;;;;;;;;;;;;;;;;;;6215356;23;19914;-67
2022/08/24 15:48:28;;;;;;;;;;;;;;;;;;6241211;23;20310;-67
2022/08/24 15:50:55;;;;;;;;;;;;;;;;;;6241608;23;19911;-67
2022/08/24 15:53:20;;;;;;;;;;;;;;;;;;6241510;23;19908;-67
2022/08/24 15:55:46;;;;;;;;;;;;;;;;;;6243388;23;19915;-67
2022/08/24 15:58:11;;;;;;;;;;;;;;;;;;6216395;23;19908;-68
2022/08/24 16:03:21;;;;;;;;;;;;;;;;;;6242945;23;19986;-70
2022/08/24 16:05:47;;;;;;;;;;;;;;;;;;6243564;23;20397;-71
2022/08/24 16:08:14;;;;;;;;;;;;;;;;;;6242927;23;19911;-70
2022/08/24 16:10:39;;;;;;;;;;;;;;;;;;6243585;23;19908;-67
2022/08/24 16:13:05;;;;;;;;;;;;;;;;;;6216575;23;20276;-66
2022/08/24 16:15:31;;;;;;;;;;;;;;;;;;6243145;23;19916;-69
2022/08/24 16:17:58;;;;;;;;;;;;;;;;;;6216290;23;19923;-68
2022/08/24 16:20:23;;;;;;;;;;;;;;;;;;6242938;23;20347;-67
2022/08/24 16:22:49;;;;;;;;;;;;;;;;;;6243111;23;19907;-68
2022/08/24 16:25:15;;;;;;;;;;;;;;;;;;6242755;23;19907;-68
2022/08/24 16:27:41;;;;;;;;;;;;;;;;;;6241302;23;20058;-68
2022/08/24 16:30:06;;;;;;;;;;;;;;;;;;6216122;23;19907;-68
2022/08/24 16:32:32;;;;;;;;;;;;;;;;;;6242617;22;20022;-68
2022/08/24 16:34:58;;;;;;;;;;;;;;;;;;6243087;23;19992;-68
2022/08/24 16:37:24;;;;;;;;;;;;;;;;;;6241063;23;19914;-68
2022/08/24 16:39:49;;;;;;;;;;;;;;;;;;6241709;23;19907;-68
2022/08/24 16:42:15;;;;;;;;;;;;;;;;;;6243188;23;19915;-68
2022/08/24 16:44:40;;;;;;;;;;;;;;;;;;6216550;23;20332;-67
2022/08/24 16:47:07;;;;;;;;;;;;;;;;;;6243703;23;19911;-68
2022/08/24 16:49:32;;;;;;;;;;;;;;;;;;6242946;23;19912;-67
2022/08/24 16:51:58;;;;;;;;;;;;;;;;;;6243113;23;20241;-67
2022/08/24 16:54:25;;;;;;;;;;;;;;;;;;6242463;23;19930;-67
2022/08/24 16:56:50;;;;;;;;;;;;;;;;;;6243230;23;19907;-68